Time;durP1;ratioP1;P1;durP2;ratioP2;P2;SDS_P1;SDS_P2;PMS_P1;PMS_P2;Temp;Humidity;BMP_temperature;BMP_pressure;BME280_temperature;BME280_humidity;BME280_pressure;Samples;Min_cycle;Max_cycle;Signal;HPM_P1;HPM_P2
2022/06/27 00:01:32;;;;;;;8.05;4.75;;;18.80;98.90;;;;;;10439424;28;20396;-83
2022/06/27 00:06:32;;;;;;;4.93;4.20;;;18.70;99.90;;;;;;10439218;28;20029;-83
2022/06/27 00:11:33;;;;;;;5.45;4.88;;;18.60;99.90;;;;;;10441635;28;20021;-84
2022/06/27 00:16:33;;;;;;;8.35;4.80;;;18.70;99.90;;;;;;10442854;28;20071;-84
2022/06/27 00:21:34;;;;;;;4.47;3.80;;;18.70;99.90;;;;;;10441160;28;20428;-82
2022/06/27 00:26:35;;;;;;;7.47;4.15;;;18.70;99.90;;;;;;10449961;28;20024;-84
2022/06/27 00:31:35;;;;;;;7.75;4.22;;;18.70;99.90;;;;;;10443281;28;20372;-81
2022/06/27 00:36:36;;;;;;;4.43;3.92;;;18.80;99.90;;;;;;10445526;28;20883;-84
2022/06/27 00:41:37;;;;;;;7.93;4.18;;;19.00;99.90;;;;;;10451012;28;20375;-84
2022/06/27 00:46:37;;;;;;;8.82;4.28;;;18.90;99.90;;;;;;10449619;28;20032;-81
2022/06/27 00:51:38;;;;;;;5.05;4.00;;;19.10;99.90;;;;;;10444356;28;20029;-83
2022/06/27 00:56:40;;;;;;;6.65;4.25;;;19.10;99.90;;;;;;10448318;28;20923;-84
2022/06/27 01:01:40;;;;;;;6.13;3.92;;;19.00;99.90;;;;;;10442091;28;20083;-83
2022/06/27 01:06:42;;;;;;;7.50;4.13;;;19.10;99.90;;;;;;10446046;28;21015;-84
2022/06/27 01:11:42;;;;;;;6.72;3.80;;;19.30;99.90;;;;;;10448903;28;20053;-83
2022/06/27 01:16:43;;;;;;;5.25;4.30;;;19.30;99.90;;;;;;10448742;28;20643;-83
2022/06/27 01:21:51;;;;;;;3.95;3.55;;;19.30;99.90;;;;;;10445402;28;20029;-83
2022/06/27 01:26:51;;;;;;;7.80;4.07;;;19.30;99.90;;;;;;10434444;28;20142;-83
2022/06/27 01:31:52;;;;;;;5.63;4.63;;;19.10;99.90;;;;;;10443576;28;20036;-83
2022/06/27 01:36:53;;;;;;;5.78;4.43;;;19.00;99.90;;;;;;10443675;28;20057;-82
2022/06/27 01:41:56;;;;;;;5.65;3.90;;;19.00;99.90;;;;;;10445840;28;20029;-82
2022/06/27 01:46:59;;;;;;;4.95;3.63;;;19.20;99.90;;;;;;10442130;28;20033;-82
2022/06/27 01:52:03;;;;;;;5.70;4.07;;;19.10;99.90;;;;;;10445514;28;20158;-82
2022/06/27 01:57:05;;;;;;;6.82;4.22;;;19.00;99.90;;;;;;10440162;28;20032;-82
2022/06/27 02:02:06;;;;;;;7.32;4.13;;;18.70;99.90;;;;;;10458228;22;20328;-82
2022/06/27 02:07:07;;;;;;;6.45;4.90;;;18.30;99.90;;;;;;10406035;28;20037;-82
2022/06/27 02:12:22;;;;;;;7.50;4.53;;;18.10;99.90;;;;;;10406236;28;20041;-82
2022/06/27 02:17:23;;;;;;;7.85;4.95;;;18.00;99.90;;;;;;10405731;28;20040;-81
2022/06/27 02:22:24;;;;;;;8.07;5.43;;;18.00;99.90;;;;;;10407485;28;20472;-83
2022/06/27 02:27:25;;;;;;;7.13;4.80;;;18.10;99.90;;;;;;10405569;28;20045;-82
2022/06/27 02:32:28;;;;;;;8.68;5.13;;;18.20;99.90;;;;;;10404346;28;20121;-82
2022/06/27 02:37:30;;;;;;;9.70;5.07;;;18.30;99.90;;;;;;10410505;28;20048;-82
2022/06/27 02:42:31;;;;;;;6.65;4.70;;;18.30;99.90;;;;;;10404646;28;20117;-82
2022/06/27 02:47:33;;;;;;;6.40;4.97;;;18.30;99.90;;;;;;10400176;28;20111;-83
2022/06/27 02:52:40;;;;;;;6.57;4.78;;;18.30;99.90;;;;;;10393265;28;20033;-83
2022/06/27 02:57:47;;;;;;;7.05;5.43;;;18.20;99.90;;;;;;10391356;28;20080;-82
2022/06/27 03:02:48;;;;;;;6.95;5.20;;;18.20;99.90;;;;;;10397887;28;20049;-82
2022/06/27 03:07:49;;;;;;;6.43;5.15;;;18.20;99.90;;;;;;10404409;28;20032;-82
2022/06/27 03:12:50;;;;;;;5.95;5.10;;;18.10;99.90;;;;;;10393638;28;20496;-82
2022/06/27 03:17:51;;;;;;;7.03;4.93;;;18.10;99.90;;;;;;10401792;28;20045;-83
2022/06/27 03:22:51;;;;;;;5.70;5.15;;;18.10;99.90;;;;;;10399222;28;20030;-83
2022/06/27 03:27:52;;;;;;;7.05;5.03;;;18.00;99.90;;;;;;10404704;28;20030;-82
2022/06/27 03:32:52;;;;;;;8.70;5.90;;;18.00;99.90;;;;;;10395056;28;20499;-83
2022/06/27 03:37:53;;;;;;;10.75;6.15;;;18.00;99.90;;;;;;10403001;28;20412;-82
2022/06/27 03:42:53;;;;;;;7.97;5.05;;;17.90;99.90;;;;;;10403492;28;20037;-82
2022/06/27 03:47:57;;;;;;;6.35;5.28;;;18.10;99.90;;;;;;10391477;28;20040;-82
2022/06/27 03:52:58;;;;;;;9.27;6.07;;;18.20;99.90;;;;;;10406303;28;20470;-86
2022/06/27 03:57:59;;;;;;;6.90;5.50;;;18.30;99.90;;;;;;10397447;28;20033;-85
2022/06/27 04:02:59;;;;;;;8.45;6.55;;;18.50;99.90;;;;;;10396607;28;20812;-84
2022/06/27 04:08:00;;;;;;;7.15;5.72;;;18.50;99.90;;;;;;10422378;23;20076;-86
2022/06/27 04:13:01;;;;;;;10.98;6.05;;;18.60;99.90;;;;;;10444720;28;20044;-84
2022/06/27 04:18:01;;;;;;;8.60;5.90;;;18.60;99.90;;;;;;10451812;28;20033;-83
2022/06/27 04:23:02;;;;;;;9.98;5.65;;;18.60;99.90;;;;;;10434358;28;20031;-86
2022/06/27 04:28:02;;;;;;;7.13;6.00;;;18.70;99.90;;;;;;10431980;28;20120;-85
2022/06/27 04:33:03;;;;;;;9.38;6.15;;;18.90;99.90;;;;;;10451535;28;20035;-87
2022/06/27 04:38:04;;;;;;;8.82;6.20;;;19.00;99.90;;;;;;10457274;28;20202;-86
2022/06/27 04:43:04;;;;;;;11.23;7.07;;;19.20;99.90;;;;;;10445744;28;20040;-85
2022/06/27 04:48:07;;;;;;;10.57;6.78;;;19.40;99.90;;;;;;10442707;28;20036;-86
2022/06/27 04:53:08;;;;;;;8.30;6.40;;;19.60;99.90;;;;;;10449131;28;20029;-85
2022/06/27 04:58:09;;;;;;;10.18;6.88;;;19.80;99.90;;;;;;10450918;28;20033;-85
2022/06/27 05:03:09;;;;;;;12.02;6.93;;;20.00;99.90;;;;;;10443989;28;20549;-86
2022/06/27 05:08:10;;;;;;;11.95;7.03;;;20.10;99.90;;;;;;10444408;28;20057;-89
2022/06/27 05:13:12;;;;;;;10.20;6.72;;;20.30;99.90;;;;;;10448055;28;20029;-87
2022/06/27 05:18:15;;;;;;;10.50;7.68;;;20.50;99.90;;;;;;10445072;28;20037;-86
2022/06/27 05:23:16;;;;;;;15.75;9.30;;;20.70;99.90;;;;;;10446316;28;20028;-87
2022/06/27 05:28:16;;;;;;;19.05;8.93;;;20.90;99.90;;;;;;10449572;28;20027;-87
2022/06/27 05:33:17;;;;;;;20.58;9.85;;;21.10;99.90;;;;;;10446627;28;20447;-82
2022/06/27 05:38:18;;;;;;;20.25;9.57;;;21.40;99.90;;;;;;10444631;28;20040;-84
2022/06/27 05:43:19;;;;;;;15.20;9.35;;;21.60;99.90;;;;;;10448835;28;20065;-83
2022/06/27 05:48:20;;;;;;;18.20;9.63;;;21.80;99.90;;;;;;10444171;28;20041;-83
2022/06/27 05:53:21;;;;;;;18.50;9.60;;;22.10;99.90;;;;;;10447485;28;20099;-84
2022/06/27 05:58:23;;;;;;;16.67;7.60;;;22.20;99.90;;;;;;10438935;28;20056;-85
2022/06/27 06:03:25;;;;;;;13.32;7.60;;;22.40;99.90;;;;;;10447294;28;20017;-84
2022/06/27 06:08:26;;;;;;;14.93;6.90;;;22.50;99.90;;;;;;10445472;28;20057;-86
2022/06/27 06:13:28;;;;;;;10.88;6.85;;;22.80;99.90;;;;;;10434129;28;20021;-84
2022/06/27 06:18:30;;;;;;;11.18;6.38;;;22.90;99.70;;;;;;10446416;28;20476;-82
2022/06/27 06:23:32;;;;;;;11.80;6.35;;;23.10;97.10;;;;;;10444611;28;20032;-84
2022/06/27 06:28:32;;;;;;;14.50;6.47;;;23.50;96.40;;;;;;10446107;28;20020;-83
2022/06/27 06:33:33;;;;;;;14.98;6.38;;;23.60;95.90;;;;;;10445066;28;20025;-85
2022/06/27 06:38:34;;;;;;;10.32;5.70;;;23.80;94.40;;;;;;10442296;28;20099;-85
2022/06/27 06:43:35;;;;;;;8.65;5.40;;;24.10;93.30;;;;;;10439041;28;20029;-83
2022/06/27 06:48:40;;;;;;;11.40;6.07;;;24.30;93.00;;;;;;10437318;28;20033;-84
2022/06/27 06:53:41;;;;;;;11.43;5.07;;;24.60;92.40;;;;;;10439400;28;20123;-83
2022/06/27 06:58:42;;;;;;;9.13;5.20;;;25.20;90.90;;;;;;10441575;28;20146;-83
2022/06/27 07:03:43;;;;;;;11.88;5.13;;;26.70;89.20;;;;;;10446000;28;20100;-83
2022/06/27 07:08:45;;;;;;;10.80;5.35;;;28.20;84.40;;;;;;10445772;28;20041;-83
2022/06/27 07:13:46;;;;;;;7.28;4.88;;;29.30;78.20;;;;;;10445842;28;20507;-85
2022/06/27 07:18:48;;;;;;;7.03;4.80;;;30.10;75.30;;;;;;10441050;28;20037;-87
2022/06/27 07:23:50;;;;;;;7.72;4.22;;;30.80;74.50;;;;;;10444880;28;20074;-84
2022/06/27 07:28:51;;;;;;;9.32;5.10;;;31.50;71.00;;;;;;10437165;28;20033;-83
2022/06/27 07:33:54;;;;;;;7.38;5.30;;;31.80;69.70;;;;;;10423485;28;20029;-86
2022/06/27 07:38:55;;;;;;;10.77;5.05;;;32.20;69.80;;;;;;10441055;28;20031;-84
2022/06/27 07:43:56;;;;;;;7.43;4.78;;;32.40;68.60;;;;;;10440919;28;20043;-84
2022/06/27 07:48:57;;;;;;;9.38;5.15;;;32.50;67.10;;;;;;10447367;28;20083;-84
2022/06/27 07:53:57;;;;;;;7.53;5.60;;;32.60;67.50;;;;;;10452586;28;20140;-84
2022/06/27 07:58:58;;;;;;;5.82;4.60;;;32.30;65.30;;;;;;10449056;28;20029;-87
2022/06/27 08:03:59;;;;;;;6.93;5.25;;;32.00;67.50;;;;;;10448698;28;20469;-84
2022/06/27 08:09:03;;;;;;;7.75;5.38;;;31.60;67.10;;;;;;10451950;28;20053;-84
2022/06/27 08:14:05;;;;;;;6.43;5.05;;;31.40;66.60;;;;;;10449372;28;20024;-86
2022/06/27 08:19:08;;;;;;;7.45;4.68;;;31.30;69.40;;;;;;10448395;28;20036;-84
2022/06/27 08:24:11;;;;;;;6.57;5.03;;;31.30;67.50;;;;;;10445565;28;20028;-83
2022/06/27 08:29:12;;;;;;;6.00;4.60;;;31.40;68.90;;;;;;10449882;28;20025;-83
2022/06/27 08:34:14;;;;;;;9.30;5.60;;;31.50;66.10;;;;;;10445210;28;20383;-82
2022/06/27 08:39:16;;;;;;;8.68;4.55;;;31.80;65.20;;;;;;10443025;28;20037;-82
2022/06/27 08:44:16;;;;;;;8.57;5.38;;;31.90;66.70;;;;;;10445976;28;20408;-83
2022/06/27 08:49:17;;;;;;;7.53;4.88;;;31.90;65.90;;;;;;10447013;28;20037;-83
2022/06/27 08:54:18;;;;;;;7.43;4.30;;;32.20;63.50;;;;;;10447273;28;20032;-84
2022/06/27 08:59:18;;;;;;;8.20;4.35;;;32.20;64.50;;;;;;10445785;28;20037;-83
2022/06/27 09:04:20;;;;;;;5.20;4.05;;;32.40;63.50;;;;;;10448957;28;20033;-84
2022/06/27 09:09:23;;;;;;;5.45;4.70;;;32.70;62.60;;;;;;10436082;28;20059;-83
2022/06/27 09:14:35;;;;;;;6.20;4.55;;;32.70;61.60;;;;;;10441435;28;20025;-83
2022/06/27 09:19:53;;;;;;;6.45;3.88;;;32.50;59.50;;;;;;10440550;28;20041;-82
2022/06/27 09:25:13;;;;;;;7.57;4.72;;;32.80;61.60;;;;;;10449401;28;20041;-83
2022/06/27 09:30:22;;;;;;;5.53;4.20;;;33.10;61.10;;;;;;10439867;28;20696;-85
2022/06/27 09:35:32;;;;;;;9.40;4.30;;;33.30;60.40;;;;;;10443830;28;20086;-83
2022/06/27 09:40:33;;;;;;;6.30;4.53;;;33.40;59.50;;;;;;10446486;28;20041;-83
2022/06/27 09:45:35;;;;;;;8.18;4.65;;;33.30;58.90;;;;;;10443184;28;20057;-84
2022/06/27 09:50:40;;;;;;;6.28;4.60;;;33.50;58.40;;;;;;10443464;28;20456;-85
2022/06/27 09:55:45;;;;;;;11.90;4.47;;;33.60;58.30;;;;;;10446356;28;20508;-83
2022/06/27 10:00:47;;;;;;;6.40;4.30;;;33.70;56.80;;;;;;10444954;28;20040;-85
2022/06/27 10:05:48;;;;;;;6.13;3.92;;;33.70;59.80;;;;;;10447992;28;20009;-84
2022/06/27 10:11:11;;;;;;;8.63;4.65;;;34.00;60.40;;;;;;10441725;28;20071;-83
2022/06/27 10:16:15;;;;;;;5.47;4.53;;;34.20;59.60;;;;;;10433207;28;20037;-84
2022/06/27 10:21:27;;;;;;;10.07;4.70;;;34.10;58.00;;;;;;10448750;28;20017;-84
2022/06/27 10:26:41;;;;;;;7.22;4.72;;;34.10;58.90;;;;;;10444171;28;20183;-84
2022/06/27 10:31:45;;;;;;;5.95;4.70;;;34.30;58.20;;;;;;10439103;28;20130;-84
2022/06/27 10:36:45;;;;;;;5.07;4.57;;;34.20;55.00;;;;;;10444933;28;20656;-83
2022/06/27 10:41:46;;;;;;;5.60;4.90;;;33.70;54.90;;;;;;10428005;28;20283;-84
2022/06/27 10:46:46;;;;;;;7.07;5.57;;;33.80;58.50;;;;;;10439309;28;20122;-83
2022/06/27 10:51:47;;;;;;;5.50;4.55;;;34.30;57.60;;;;;;10437093;28;20419;-83
2022/06/27 10:56:54;;;;;;;9.13;5.03;;;34.60;59.50;;;;;;10445215;28;20029;-84
2022/06/27 11:02:00;;;;;;;7.53;5.13;;;34.80;57.60;;;;;;10440237;28;20025;-83
2022/06/27 11:07:05;;;;;;;6.40;4.47;;;34.70;56.80;;;;;;10437031;28;20063;-85
2022/06/27 11:12:07;;;;;;;7.10;4.70;;;34.70;57.70;;;;;;10440969;28;20028;-82
2022/06/27 11:17:42;;;;;;;9.98;5.30;;;34.70;57.60;;;;;;10439215;28;20048;-82
2022/06/27 11:22:48;;;;;;;6.88;5.40;;;34.10;58.40;;;;;;10441545;28;20082;-81
2022/06/27 11:27:58;;;;;;;7.38;5.43;;;33.70;56.90;;;;;;10445562;28;20021;-83
2022/06/27 11:32:59;;;;;;;10.43;6.05;;;33.20;57.60;;;;;;10440011;28;20029;-83
2022/06/27 11:37:59;;;;;;;7.10;5.10;;;33.40;58.70;;;;;;10442748;28;20029;-83
2022/06/27 11:43:02;;;;;;;6.18;5.03;;;33.70;60.70;;;;;;10440858;28;20042;-82
2022/06/27 11:48:15;;;;;;;17.43;5.60;;;34.30;61.00;;;;;;10440299;28;20021;-85
2022/06/27 11:53:16;;;;;;;6.30;4.95;;;33.70;57.20;;;;;;10432262;28;20030;-85
2022/06/27 11:58:17;;;;;;;7.22;5.30;;;33.80;59.10;;;;;;10441378;28;20111;-83
2022/06/27 12:03:18;;;;;;;5.53;4.38;;;34.50;58.90;;;;;;10437707;28;20039;-86
2022/06/27 12:08:19;;;;;;;6.47;4.93;;;35.20;58.00;;;;;;10440265;28;20053;-84
2022/06/27 12:13:19;;;;;;;7.10;4.95;;;35.20;56.10;;;;;;10447837;28;20383;-83
2022/06/27 12:18:20;;;;;;;5.82;4.47;;;35.40;55.20;;;;;;10445836;28;20817;-84
2022/06/27 12:23:20;;;;;;;7.57;5.10;;;35.60;55.10;;;;;;10449229;28;20451;-83
2022/06/27 12:28:22;;;;;;;9.88;5.28;;;35.50;56.90;;;;;;10449663;28;20426;-83
2022/06/27 12:33:22;;;;;;;9.93;5.00;;;35.60;54.50;;;;;;10448730;28;20039;-83
2022/06/27 12:38:23;;;;;;;5.47;4.45;;;35.70;53.40;;;;;;10441940;28;20040;-83
2022/06/27 12:43:23;;;;;;;8.50;5.50;;;35.40;53.30;;;;;;10447267;28;20112;-83
2022/06/27 12:48:24;;;;;;;9.15;5.60;;;34.90;55.90;;;;;;10445007;28;20064;-83
2022/06/27 12:53:26;;;;;;;6.28;4.75;;;35.00;56.00;;;;;;10444081;28;20388;-83
2022/06/27 12:58:26;;;;;;;5.32;4.63;;;34.80;55.50;;;;;;10447053;28;20033;-83
2022/06/27 13:03:27;;;;;;;7.88;5.32;;;34.90;58.80;;;;;;10441583;28;20684;-82
2022/06/27 13:08:27;;;;;;;6.40;5.20;;;34.50;54.30;;;;;;10450094;28;20110;-84
2022/06/27 13:13:28;;;;;;;7.00;4.97;;;34.10;55.80;;;;;;10445195;28;20097;-85
2022/06/27 13:18:29;;;;;;;5.18;4.68;;;34.30;56.90;;;;;;10439814;28;20436;-84
2022/06/27 13:23:30;;;;;;;8.57;5.63;;;34.30;55.80;;;;;;10448051;28;20022;-85
2022/06/27 13:28:32;;;;;;;7.00;5.03;;;34.30;54.80;;;;;;10447583;28;20087;-84
2022/06/27 13:33:32;;;;;;;5.07;4.57;;;34.00;55.50;;;;;;10446729;28;20032;-84
2022/06/27 13:38:33;;;;;;;7.05;4.63;;;34.20;58.40;;;;;;10446778;28;20489;-86
2022/06/27 13:43:33;;;;;;;5.05;4.32;;;34.60;57.10;;;;;;10448100;28;20362;-84
2022/06/27 13:48:34;;;;;;;7.30;5.00;;;34.80;55.90;;;;;;10435077;28;20033;-85
2022/06/27 13:53:36;;;;;;;5.63;5.13;;;34.80;55.60;;;;;;10437748;28;20079;-84
2022/06/27 13:58:36;;;;;;;8.00;4.93;;;34.80;54.10;;;;;;10444794;28;20056;-83
2022/06/27 14:03:37;;;;;;;7.35;5.22;;;35.00;56.40;;;;;;10438419;28;20043;-85
2022/06/27 14:08:38;;;;;;;5.13;4.53;;;35.20;52.40;;;;;;10445331;28;20049;-83
2022/06/27 14:13:39;;;;;;;6.63;5.10;;;35.10;55.50;;;;;;10445786;28;20021;-86
2022/06/27 14:18:39;;;;;;;6.35;5.07;;;34.90;53.30;;;;;;10443233;28;20033;-83
2022/06/27 14:23:40;;;;;;;5.10;4.47;;;34.40;54.00;;;;;;10442719;28;20395;-83
2022/06/27 14:28:41;;;;;;;8.40;4.60;;;34.30;55.50;;;;;;10445552;28;20017;-84
2022/06/27 14:33:41;;;;;;;5.10;4.60;;;34.20;56.50;;;;;;10443273;28;20488;-84
2022/06/27 14:38:42;;;;;;;6.22;5.10;;;34.00;55.00;;;;;;10444373;28;20052;-85
2022/06/27 14:43:43;;;;;;;7.82;4.97;;;33.70;54.40;;;;;;10435734;28;20021;-85
2022/06/27 14:48:43;;;;;;;7.80;4.75;;;33.40;54.80;;;;;;10438699;28;20025;-83
2022/06/27 14:53:44;;;;;;;5.90;4.35;;;33.20;55.80;;;;;;10437477;28;20031;-83
2022/06/27 14:58:44;;;;;;;6.57;4.97;;;33.30;56.80;;;;;;10441292;28;20052;-84
2022/06/27 15:03:45;;;;;;;5.93;4.88;;;33.40;57.60;;;;;;10439835;28;20035;-85
2022/06/27 15:08:45;;;;;;;6.25;4.68;;;33.60;56.90;;;;;;10443699;28;20504;-83
2022/06/27 15:13:46;;;;;;;6.45;4.75;;;33.70;56.90;;;;;;10432409;28;20043;-84
2022/06/27 15:18:47;;;;;;;4.90;4.40;;;33.60;56.70;;;;;;10431346;28;20044;-85
2022/06/27 15:23:47;;;;;;;5.60;4.45;;;33.50;55.10;;;;;;10427547;28;20025;-83
2022/06/27 15:28:48;;;;;;;5.13;4.63;;;33.40;55.70;;;;;;10443099;28;20029;-84
2022/06/27 15:33:49;;;;;;;7.68;5.28;;;33.20;55.70;;;;;;10441218;28;20036;-84
2022/06/27 15:38:50;;;;;;;5.50;5.00;;;32.80;57.50;;;;;;10440622;28;20033;-83
2022/06/27 15:43:51;;;;;;;8.82;5.55;;;32.50;57.20;;;;;;10437671;28;20555;-84
2022/06/27 15:48:52;;;;;;;11.13;6.43;;;32.10;59.00;;;;;;10437982;28;20024;-83
2022/06/27 15:53:52;;;;;;;6.47;5.88;;;31.70;60.00;;;;;;10436325;28;20033;-84
2022/06/27 15:58:53;;;;;;;7.22;5.43;;;31.60;60.20;;;;;;10446808;28;20492;-83
2022/06/27 16:03:54;;;;;;;7.82;5.60;;;31.60;60.40;;;;;;10444206;23;20057;-84
2022/06/27 16:08:54;;;;;;;8.55;5.15;;;31.50;60.90;;;;;;10408254;28;20029;-84
2022/06/27 16:13:55;;;;;;;6.72;5.75;;;31.40;61.50;;;;;;10407454;28;20033;-84
2022/06/27 16:18:55;;;;;;;7.88;5.20;;;31.30;62.30;;;;;;10408073;28;20485;-82
2022/06/27 16:23:56;;;;;;;8.60;5.05;;;31.30;61.10;;;;;;10408615;28;20477;-84
2022/06/27 16:28:57;;;;;;;6.60;4.53;;;31.30;61.30;;;;;;10385987;28;20033;-86
2022/06/27 16:33:57;;;;;;;5.35;4.63;;;31.20;62.00;;;;;;10404328;28;20026;-84
2022/06/27 16:38:59;;;;;;;6.10;5.50;;;31.00;61.80;;;;;;10404014;28;20052;-84
2022/06/27 16:43:59;;;;;;;7.25;5.13;;;30.90;62.10;;;;;;10443250;23;20053;-83
2022/06/27 16:49:01;;;;;;;7.25;5.40;;;30.60;62.00;;;;;;10377317;28;20022;-81
2022/06/27 16:54:02;;;;;;;8.35;5.32;;;30.40;63.30;;;;;;10377176;28;20460;-84
2022/06/27 16:59:03;;;;;;;7.90;5.25;;;30.20;63.50;;;;;;10384448;28;20040;-84
2022/06/27 17:04:03;;;;;;;6.68;5.43;;;30.00;64.30;;;;;;10356335;28;20037;-81
2022/06/27 17:09:04;;;;;;;9.85;5.55;;;29.90;65.40;;;;;;10384452;28;20037;-84
2022/06/27 17:14:04;;;;;;;11.40;5.45;;;29.70;65.80;;;;;;10387723;28;20413;-84
2022/06/27 17:19:05;;;;;;;6.18;5.07;;;29.50;65.20;;;;;;10382973;28;20041;-82
2022/06/27 17:24:06;;;;;;;7.25;5.05;;;29.50;65.70;;;;;;10376601;28;20033;-85
2022/06/27 17:29:07;;;;;;;5.97;5.38;;;29.40;66.40;;;;;;10379592;28;20045;-84
2022/06/27 17:34:07;;;;;;;9.38;6.95;;;29.30;67.90;;;;;;10363422;28;20034;-84
2022/06/27 17:39:09;;;;;;;33.95;21.45;;;29.10;68.00;;;;;;10393240;28;20034;-85
2022/06/27 17:44:10;;;;;;;45.75;23.27;;;29.00;67.50;;;;;;10390213;28;20061;-84
2022/06/27 17:49:11;;;;;;;20.63;11.82;;;28.90;65.60;;;;;;10370505;28;20030;-83
2022/06/27 17:54:12;;;;;;;25.77;12.82;;;28.90;66.80;;;;;;10388361;28;20063;-83
2022/06/27 17:59:12;;;;;;;11.73;5.53;;;28.80;66.80;;;;;;10371216;28;20408;-83
2022/06/27 18:04:13;;;;;;;8.48;5.85;;;28.60;68.60;;;;;;10377075;28;20034;-84
2022/06/27 18:09:14;;;;;;;10.07;6.18;;;28.40;68.70;;;;;;10368317;28;20538;-83
2022/06/27 18:14:16;;;;;;;8.85;6.50;;;28.20;70.10;;;;;;10383586;28;20033;-83
2022/06/27 18:19:17;;;;;;;11.43;6.32;;;28.00;69.40;;;;;;10371170;28;20083;-82
2022/06/27 18:24:18;;;;;;;10.63;6.00;;;27.80;69.20;;;;;;10380696;28;20084;-82
2022/06/27 18:29:19;;;;;;;10.43;6.40;;;27.60;70.80;;;;;;10377226;28;20030;-82
2022/06/27 18:34:20;;;;;;;11.68;7.07;;;27.30;72.80;;;;;;10377696;28;20155;-83
2022/06/27 18:39:22;;;;;;;10.70;7.35;;;26.90;73.50;;;;;;10340573;28;20038;-84
2022/06/27 18:44:24;;;;;;;8.68;5.43;;;26.70;73.40;;;;;;10360977;28;20057;-82
2022/06/27 18:49:25;;;;;;;10.68;5.88;;;26.50;74.20;;;;;;10352298;28;20124;-82
2022/06/27 18:54:26;;;;;;;6.97;5.85;;;26.20;75.20;;;;;;10367491;28;20033;-83
2022/06/27 18:59:27;;;;;;;7.57;6.00;;;26.00;75.30;;;;;;10380543;28;20045;-84
2022/06/27 19:04:29;;;;;;;7.55;5.68;;;25.80;75.30;;;;;;10375601;28;20022;-83
2022/06/27 19:09:32;;;;;;;11.80;7.15;;;25.70;76.20;;;;;;10383666;28;20050;-84
2022/06/27 19:14:33;;;;;;;11.18;6.90;;;25.40;75.40;;;;;;10386174;28;20030;-84
2022/06/27 19:19:34;;;;;;;9.50;6.57;;;25.30;76.50;;;;;;10380339;28;20111;-84
2022/06/27 19:24:36;;;;;;;8.48;6.43;;;25.20;77.50;;;;;;10373357;28;20034;-83
2022/06/27 19:29:37;;;;;;;12.35;6.75;;;25.00;77.10;;;;;;10383507;28;20057;-84
2022/06/27 19:34:39;;;;;;;12.80;6.65;;;25.00;77.90;;;;;;10374061;28;20459;-82
2022/06/27 19:39:39;;;;;;;11.15;6.15;;;24.80;76.60;;;;;;10370753;28;20563;-83
2022/06/27 19:44:40;;;;;;;7.63;5.80;;;24.80;77.80;;;;;;10365049;28;20081;-83
2022/06/27 19:49:40;;;;;;;7.05;5.45;;;24.80;78.50;;;;;;10365726;28;20036;-82
2022/06/27 19:54:41;;;;;;;5.45;4.85;;;24.70;79.30;;;;;;10367420;28;20477;-83
2022/06/27 19:59:42;;;;;;;7.63;5.45;;;24.60;80.20;;;;;;10367936;28;20053;-83
2022/06/27 20:04:42;;;;;;;11.43;5.90;;;24.50;80.40;;;;;;10373743;28;20034;-82
2022/06/27 20:09:46;;;;;;;8.48;6.38;;;24.30;81.20;;;;;;10357642;28;20113;-83
2022/06/27 20:14:46;;;;;;;11.60;7.15;;;24.10;82.00;;;;;;10372550;28;20038;-83
2022/06/27 20:19:47;;;;;;;8.82;7.18;;;23.70;83.20;;;;;;10374730;28;20487;-84
2022/06/27 20:24:51;;;;;;;10.75;6.80;;;23.40;84.50;;;;;;10381186;28;20042;-82
2022/06/27 20:29:51;;;;;;;7.65;6.05;;;23.10;84.30;;;;;;10366626;28;20033;-82
2022/06/27 20:34:52;;;;;;;9.38;6.72;;;23.00;85.20;;;;;;10355349;28;20045;-83
2022/06/27 20:39:53;;;;;;;11.02;7.78;;;22.90;86.30;;;;;;10355096;28;20084;-82
2022/06/27 20:44:54;;;;;;;9.43;6.78;;;22.80;86.00;;;;;;10377959;28;20185;-82
2022/06/27 20:49:54;;;;;;;8.27;6.68;;;22.70;85.00;;;;;;10372939;28;20744;-83
2022/06/27 20:54:57;;;;;;;9.40;6.22;;;22.90;84.60;;;;;;10370079;28;20755;-84
2022/06/27 20:59:57;;;;;;;11.85;6.22;;;22.90;85.50;;;;;;10366605;28;20595;-85
2022/06/27 21:05:00;;;;;;;9.73;5.93;;;22.80;86.40;;;;;;10367074;28;20037;-83
2022/06/27 21:15:20;;;;;;;6.78;5.78;;;22.50;87.40;;;;;;10365947;28;20085;-84
2022/06/27 21:20:20;;;;;;;7.78;6.72;;;22.30;88.10;;;;;;10364494;28;20037;-84
2022/06/27 21:25:21;;;;;;;6.75;5.90;;;22.20;89.20;;;;;;10370794;28;20029;-84
2022/06/27 21:30:21;;;;;;;8.75;6.15;;;22.10;89.10;;;;;;10383395;28;20033;-85
2022/06/27 21:35:22;;;;;;;7.43;5.38;;;21.90;89.00;;;;;;10409403;22;20053;-83
2022/06/27 21:40:23;;;;;;;8.85;6.20;;;21.80;89.20;;;;;;10406312;28;20037;-82
2022/06/27 21:45:24;;;;;;;7.70;5.88;;;21.80;89.50;;;;;;10402324;28;20128;-81
2022/06/27 21:50:24;;;;;;;9.77;6.72;;;21.70;89.70;;;;;;10407052;28;20504;-81
2022/06/27 21:55:25;;;;;;;8.38;6.75;;;21.60;90.00;;;;;;10403799;28;20136;-81
2022/06/27 22:00:37;;;;;;;5.55;5.05;;;21.60;90.20;;;;;;10392669;28;20096;-81
2022/06/27 22:05:39;;;;;;;9.23;5.47;;;21.60;90.50;;;;;;10403325;28;20030;-82
2022/06/27 22:10:41;;;;;;;10.18;6.55;;;21.50;90.40;;;;;;10403616;28;20029;-82
2022/06/27 22:15:45;;;;;;;9.30;5.88;;;21.40;90.70;;;;;;10403924;28;20060;-84
2022/06/27 22:20:47;;;;;;;6.95;6.25;;;21.40;90.80;;;;;;10404450;28;20037;-84
2022/06/27 22:25:48;;;;;;;11.27;6.20;;;21.30;90.80;;;;;;10402608;28;20037;-84
2022/06/27 22:30:48;;;;;;;10.35;6.40;;;21.40;91.00;;;;;;10396920;28;20029;-84
2022/06/27 22:35:49;;;;;;;8.43;6.32;;;21.30;90.80;;;;;;10401945;28;20057;-84
2022/06/27 22:40:50;;;;;;;8.48;5.60;;;21.30;91.20;;;;;;10403783;28;20029;-84
2022/06/27 22:45:50;;;;;;;8.88;6.25;;;21.20;91.50;;;;;;10400648;28;20071;-85
2022/06/27 22:50:51;;;;;;;9.68;6.75;;;21.10;91.70;;;;;;10403899;28;20359;-85
2022/06/27 22:55:51;;;;;;;14.57;8.23;;;21.00;92.10;;;;;;10402873;28;20441;-84
2022/06/27 23:00:52;;;;;;;14.48;8.18;;;20.90;92.40;;;;;;10402834;28;20546;-86
2022/06/27 23:05:52;;;;;;;17.02;7.97;;;20.80;92.90;;;;;;10401543;28;20017;-84
2022/06/27 23:10:53;;;;;;;13.60;7.50;;;20.70;93.50;;;;;;10401500;28;20033;-87
2022/06/27 23:15:53;;;;;;;13.35;8.48;;;20.50;94.50;;;;;;10392621;28;20649;-87
2022/06/27 23:20:54;;;;;;;13.10;7.03;;;20.50;95.50;;;;;;10392220;28;20109;-84
2022/06/27 23:25:54;;;;;;;9.70;6.72;;;20.50;96.10;;;;;;10396847;28;20084;-84
2022/06/27 23:30:55;;;;;;;11.43;7.13;;;20.50;96.70;;;;;;10397848;28;20520;-85
2022/06/27 23:35:56;;;;;;;8.15;6.25;;;20.50;96.50;;;;;;10398501;28;20057;-89
2022/06/27 23:40:57;;;;;;;9.60;6.20;;;20.60;96.60;;;;;;10403646;28;20025;-85
2022/06/27 23:45:59;;;;;;;11.02;6.30;;;20.60;97.00;;;;;;10397135;28;20617;-85
2022/06/27 23:51:00;;;;;;;8.18;6.65;;;20.60;97.10;;;;;;10404410;28;20044;-85
2022/06/27 23:56:02;;;;;;;11.82;6.75;;;20.50;98.00;;;;;;10400863;28;20366;-87
